sensor_id;sensor_type;location;lat;lon;timestamp;P1;durP1;ratioP1;P2;durP2;ratioP2
53781;SDS011;39692;53.114;7.060;2022-07-24T00:01:32;5.97;;;4.43;;
53781;SDS011;39692;53.114;7.060;2022-07-24T00:04:02;6.10;;;4.35;;
53781;SDS011;39692;53.114;7.060;2022-07-24T00:06:28;6.30;;;4.60;;
53781;SDS011;39692;53.114;7.060;2022-07-24T00:08:54;5.68;;;4.38;;
53781;SDS011;39692;53.114;7.060;2022-07-24T00:11:20;6.70;;;4.15;;
53781;SDS011;39692;53.114;7.060;2022-07-24T00:13:45;4.97;;;4.30;;
53781;SDS011;39692;53.114;7.060;2022-07-24T00:16:11;4.72;;;4.13;;
53781;SDS011;39692;53.114;7.060;2022-07-24T00:18:37;6.40;;;4.28;;
53781;SDS011;39692;53.114;7.060;2022-07-24T00:21:02;4.88;;;4.10;;
53781;SDS011;39692;53.114;7.060;2022-07-24T00:23:28;5.35;;;4.20;;
53781;SDS011;39692;53.114;7.060;2022-07-24T00:25:54;6.95;;;4.13;;
53781;SDS011;39692;53.114;7.060;2022-07-24T00:28:20;5.78;;;4.05;;
53781;SDS011;39692;53.114;7.060;2022-07-24T00:30:46;5.15;;;4.32;;
53781;SDS011;39692;53.114;7.060;2022-07-24T00:33:12;6.18;;;4.20;;
53781;SDS011;39692;53.114;7.060;2022-07-24T00:35:38;5.32;;;4.15;;
53781;SDS011;39692;53.114;7.060;2022-07-24T00:38:04;7.18;;;4.90;;
53781;SDS011;39692;53.114;7.060;2022-07-24T00:40:30;6.18;;;4.35;;
53781;SDS011;39692;53.114;7.060;2022-07-24T00:42:56;5.50;;;4.50;;
53781;SDS011;39692;53.114;7.060;2022-07-24T00:45:22;5.00;;;4.35;;
53781;SDS011;39692;53.114;7.060;2022-07-24T00:47:49;6.03;;;4.32;;
53781;SDS011;39692;53.114;7.060;2022-07-24T00:50:16;6.45;;;4.70;;
53781;SDS011;39692;53.114;7.060;2022-07-24T00:52:42;5.70;;;4.60;;
53781;SDS011;39692;53.114;7.060;2022-07-24T00:55:10;4.90;;;4.10;;
53781;SDS011;39692;53.114;7.060;2022-07-24T00:57:36;7.97;;;4.28;;
53781;SDS011;39692;53.114;7.060;2022-07-24T01:00:05;7.72;;;5.15;;
53781;SDS011;39692;53.114;7.060;2022-07-24T01:02:32;5.72;;;4.88;;
53781;SDS011;39692;53.114;7.060;2022-07-24T01:04:58;6.30;;;4.72;;
53781;SDS011;39692;53.114;7.060;2022-07-24T01:07:24;6.28;;;4.63;;
53781;SDS011;39692;53.114;7.060;2022-07-24T01:09:50;4.97;;;4.40;;
53781;SDS011;39692;53.114;7.060;2022-07-24T01:12:16;5.72;;;4.65;;
53781;SDS011;39692;53.114;7.060;2022-07-24T01:14:43;6.82;;;4.45;;
53781;SDS011;39692;53.114;7.060;2022-07-24T01:17:09;5.57;;;4.22;;
53781;SDS011;39692;53.114;7.060;2022-07-24T01:19:35;6.57;;;4.70;;
53781;SDS011;39692;53.114;7.060;2022-07-24T01:22:01;7.70;;;4.50;;
53781;SDS011;39692;53.114;7.060;2022-07-24T01:24:27;6.05;;;4.63;;
53781;SDS011;39692;53.114;7.060;2022-07-24T01:26:52;5.57;;;4.63;;
53781;SDS011;39692;53.114;7.060;2022-07-24T01:29:18;5.57;;;4.80;;
53781;SDS011;39692;53.114;7.060;2022-07-24T01:31:44;6.72;;;4.90;;
53781;SDS011;39692;53.114;7.060;2022-07-24T01:34:10;5.90;;;4.47;;
53781;SDS011;39692;53.114;7.060;2022-07-24T01:36:36;6.18;;;5.32;;
53781;SDS011;39692;53.114;7.060;2022-07-24T01:39:02;6.70;;;4.97;;
53781;SDS011;39692;53.114;7.060;2022-07-24T01:41:27;6.47;;;5.18;;
53781;SDS011;39692;53.114;7.060;2022-07-24T01:43:53;5.80;;;4.55;;
53781;SDS011;39692;53.114;7.060;2022-07-24T01:46:19;7.03;;;5.43;;
53781;SDS011;39692;53.114;7.060;2022-07-24T01:48:45;7.18;;;5.60;;
53781;SDS011;39692;53.114;7.060;2022-07-24T01:51:11;7.13;;;5.15;;
53781;SDS011;39692;53.114;7.060;2022-07-24T01:53:36;5.57;;;5.05;;
53781;SDS011;39692;53.114;7.060;2022-07-24T01:56:02;7.30;;;5.25;;
53781;SDS011;39692;53.114;7.060;2022-07-24T01:58:28;6.65;;;5.00;;
53781;SDS011;39692;53.114;7.060;2022-07-24T02:00:54;7.65;;;5.13;;
53781;SDS011;39692;53.114;7.060;2022-07-24T02:03:20;6.40;;;4.85;;
53781;SDS011;39692;53.114;7.060;2022-07-24T02:05:46;6.55;;;5.60;;
53781;SDS011;39692;53.114;7.060;2022-07-24T02:08:12;7.13;;;5.43;;
53781;SDS011;39692;53.114;7.060;2022-07-24T02:10:38;10.43;;;4.88;;
53781;SDS011;39692;53.114;7.060;2022-07-24T02:13:04;9.25;;;5.30;;
53781;SDS011;39692;53.114;7.060;2022-07-24T02:15:30;6.28;;;5.10;;
53781;SDS011;39692;53.114;7.060;2022-07-24T02:17:57;5.80;;;5.15;;
53781;SDS011;39692;53.114;7.060;2022-07-24T02:20:26;7.32;;;5.57;;
53781;SDS011;39692;53.114;7.060;2022-07-24T02:22:52;6.13;;;4.95;;
53781;SDS011;39692;53.114;7.060;2022-07-24T02:25:18;5.90;;;5.30;;
53781;SDS011;39692;53.114;7.060;2022-07-24T02:27:44;5.32;;;4.80;;
53781;SDS011;39692;53.114;7.060;2022-07-24T02:30:16;6.43;;;4.97;;
53781;SDS011;39692;53.114;7.060;2022-07-24T02:32:43;8.63;;;5.55;;
53781;SDS011;39692;53.114;7.060;2022-07-24T02:35:09;8.93;;;5.63;;
53781;SDS011;39692;53.114;7.060;2022-07-24T02:37:36;6.25;;;5.65;;
53781;SDS011;39692;53.114;7.060;2022-07-24T02:40:03;5.78;;;5.10;;
53781;SDS011;39692;53.114;7.060;2022-07-24T02:42:30;7.18;;;5.32;;
53781;SDS011;39692;53.114;7.060;2022-07-24T02:44:55;6.30;;;5.10;;
53781;SDS011;39692;53.114;7.060;2022-07-24T02:47:21;8.30;;;5.90;;
53781;SDS011;39692;53.114;7.060;2022-07-24T02:49:47;5.97;;;5.00;;
53781;SDS011;39692;53.114;7.060;2022-07-24T02:52:12;6.45;;;5.65;;
53781;SDS011;39692;53.114;7.060;2022-07-24T02:54:38;5.78;;;5.22;;
53781;SDS011;39692;53.114;7.060;2022-07-24T02:57:04;6.22;;;5.10;;
53781;SDS011;39692;53.114;7.060;2022-07-24T02:59:29;6.47;;;5.43;;
53781;SDS011;39692;53.114;7.060;2022-07-24T03:01:55;6.32;;;5.13;;
53781;SDS011;39692;53.114;7.060;2022-07-24T03:04:21;7.03;;;5.38;;
53781;SDS011;39692;53.114;7.060;2022-07-24T03:06:46;7.40;;;5.35;;
53781;SDS011;39692;53.114;7.060;2022-07-24T03:09:12;7.93;;;5.88;;
53781;SDS011;39692;53.114;7.060;2022-07-24T03:11:38;7.57;;;5.70;;
53781;SDS011;39692;53.114;7.060;2022-07-24T03:14:03;7.50;;;5.50;;
53781;SDS011;39692;53.114;7.060;2022-07-24T03:16:29;7.30;;;5.78;;
53781;SDS011;39692;53.114;7.060;2022-07-24T03:18:54;7.70;;;5.65;;
53781;SDS011;39692;53.114;7.060;2022-07-24T03:21:20;7.82;;;5.85;;
53781;SDS011;39692;53.114;7.060;2022-07-24T03:23:46;8.82;;;5.45;;
53781;SDS011;39692;53.114;7.060;2022-07-24T03:26:11;7.10;;;5.78;;
53781;SDS011;39692;53.114;7.060;2022-07-24T03:28:37;5.97;;;5.38;;
53781;SDS011;39692;53.114;7.060;2022-07-24T03:31:03;7.80;;;5.63;;
53781;SDS011;39692;53.114;7.060;2022-07-24T03:33:29;6.22;;;5.60;;
53781;SDS011;39692;53.114;7.060;2022-07-24T03:35:54;6.97;;;6.00;;
53781;SDS011;39692;53.114;7.060;2022-07-24T03:38:20;7.57;;;5.75;;
53781;SDS011;39692;53.114;7.060;2022-07-24T03:40:46;7.45;;;5.93;;
53781;SDS011;39692;53.114;7.060;2022-07-24T03:43:12;6.30;;;5.45;;
53781;SDS011;39692;53.114;7.060;2022-07-24T03:45:38;6.65;;;5.50;;
53781;SDS011;39692;53.114;7.060;2022-07-24T03:48:04;8.57;;;5.47;;
53781;SDS011;39692;53.114;7.060;2022-07-24T03:50:30;7.57;;;5.57;;
53781;SDS011;39692;53.114;7.060;2022-07-24T03:52:56;7.32;;;5.68;;
53781;SDS011;39692;53.114;7.060;2022-07-24T03:55:21;6.75;;;5.97;;
53781;SDS011;39692;53.114;7.060;2022-07-24T03:57:47;7.50;;;5.55;;
53781;SDS011;39692;53.114;7.060;2022-07-24T04:00:13;7.90;;;5.82;;
53781;SDS011;39692;53.114;7.060;2022-07-24T04:02:39;6.55;;;5.57;;
53781;SDS011;39692;53.114;7.060;2022-07-24T04:05:06;6.18;;;5.57;;
53781;SDS011;39692;53.114;7.060;2022-07-24T04:07:34;7.70;;;5.35;;
53781;SDS011;39692;53.114;7.060;2022-07-24T04:10:03;7.05;;;5.85;;
53781;SDS011;39692;53.114;7.060;2022-07-24T04:12:30;6.88;;;6.15;;
53781;SDS011;39692;53.114;7.060;2022-07-24T04:14:56;8.70;;;5.97;;
53781;SDS011;39692;53.114;7.060;2022-07-24T04:17:22;6.68;;;5.18;;
53781;SDS011;39692;53.114;7.060;2022-07-24T04:19:47;6.13;;;5.38;;
53781;SDS011;39692;53.114;7.060;2022-07-24T04:22:13;5.97;;;5.38;;
53781;SDS011;39692;53.114;7.060;2022-07-24T04:24:39;7.78;;;5.82;;
53781;SDS011;39692;53.114;7.060;2022-07-24T04:27:05;8.80;;;5.68;;
53781;SDS011;39692;53.114;7.060;2022-07-24T04:29:30;6.97;;;5.32;;
53781;SDS011;39692;53.114;7.060;2022-07-24T04:31:56;7.57;;;6.00;;
53781;SDS011;39692;53.114;7.060;2022-07-24T04:34:22;7.95;;;5.28;;
53781;SDS011;39692;53.114;7.060;2022-07-24T04:36:47;7.07;;;5.10;;
53781;SDS011;39692;53.114;7.060;2022-07-24T04:39:13;7.05;;;5.45;;
53781;SDS011;39692;53.114;7.060;2022-07-24T04:41:39;6.82;;;5.30;;
53781;SDS011;39692;53.114;7.060;2022-07-24T04:44:05;6.18;;;5.47;;
53781;SDS011;39692;53.114;7.060;2022-07-24T04:46:31;6.97;;;5.32;;
53781;SDS011;39692;53.114;7.060;2022-07-24T04:48:57;6.90;;;5.30;;
53781;SDS011;39692;53.114;7.060;2022-07-24T04:51:23;7.18;;;5.45;;
53781;SDS011;39692;53.114;7.060;2022-07-24T04:53:48;8.55;;;5.40;;
53781;SDS011;39692;53.114;7.060;2022-07-24T04:56:18;6.05;;;5.40;;
53781;SDS011;39692;53.114;7.060;2022-07-24T04:58:44;7.97;;;5.78;;
53781;SDS011;39692;53.114;7.060;2022-07-24T05:01:10;8.90;;;5.63;;
53781;SDS011;39692;53.114;7.060;2022-07-24T05:03:35;6.75;;;5.30;;
53781;SDS011;39692;53.114;7.060;2022-07-24T05:06:01;7.80;;;5.47;;
53781;SDS011;39692;53.114;7.060;2022-07-24T05:08:27;6.10;;;5.05;;
53781;SDS011;39692;53.114;7.060;2022-07-24T05:10:53;6.63;;;5.30;;
53781;SDS011;39692;53.114;7.060;2022-07-24T05:13:18;6.03;;;5.43;;
53781;SDS011;39692;53.114;7.060;2022-07-24T05:15:44;8.50;;;5.75;;
53781;SDS011;39692;53.114;7.060;2022-07-24T05:18:10;6.22;;;5.63;;
53781;SDS011;39692;53.114;7.060;2022-07-24T05:20:35;6.07;;;5.47;;
53781;SDS011;39692;53.114;7.060;2022-07-24T05:23:01;6.00;;;5.40;;
53781;SDS011;39692;53.114;7.060;2022-07-24T05:25:27;9.32;;;5.93;;
53781;SDS011;39692;53.114;7.060;2022-07-24T05:27:52;7.80;;;5.75;;
53781;SDS011;39692;53.114;7.060;2022-07-24T05:30:18;7.35;;;5.80;;
53781;SDS011;39692;53.114;7.060;2022-07-24T05:32:44;7.38;;;6.18;;
53781;SDS011;39692;53.114;7.060;2022-07-24T05:35:10;7.68;;;5.60;;
53781;SDS011;39692;53.114;7.060;2022-07-24T05:37:35;6.30;;;5.50;;
53781;SDS011;39692;53.114;7.060;2022-07-24T05:40:01;6.15;;;5.35;;
53781;SDS011;39692;53.114;7.060;2022-07-24T05:42:27;6.18;;;5.22;;
53781;SDS011;39692;53.114;7.060;2022-07-24T05:44:53;6.07;;;5.15;;
53781;SDS011;39692;53.114;7.060;2022-07-24T05:47:19;8.15;;;5.78;;
53781;SDS011;39692;53.114;7.060;2022-07-24T05:49:44;6.32;;;5.72;;
53781;SDS011;39692;53.114;7.060;2022-07-24T05:52:10;7.22;;;5.55;;
53781;SDS011;39692;53.114;7.060;2022-07-24T05:54:36;7.47;;;5.68;;
53781;SDS011;39692;53.114;7.060;2022-07-24T05:57:01;6.20;;;5.60;;
53781;SDS011;39692;53.114;7.060;2022-07-24T05:59:27;6.07;;;5.40;;
53781;SDS011;39692;53.114;7.060;2022-07-24T06:01:53;6.53;;;5.65;;
53781;SDS011;39692;53.114;7.060;2022-07-24T06:04:18;7.68;;;5.70;;
53781;SDS011;39692;53.114;7.060;2022-07-24T06:06:44;6.28;;;5.65;;
53781;SDS011;39692;53.114;7.060;2022-07-24T06:09:10;8.63;;;6.18;;
53781;SDS011;39692;53.114;7.060;2022-07-24T06:11:35;7.10;;;5.78;;
53781;SDS011;39692;53.114;7.060;2022-07-24T06:14:01;6.95;;;5.82;;
53781;SDS011;39692;53.114;7.060;2022-07-24T06:16:28;7.93;;;6.22;;
53781;SDS011;39692;53.114;7.060;2022-07-24T06:18:54;8.00;;;6.35;;
53781;SDS011;39692;53.114;7.060;2022-07-24T06:21:20;7.50;;;6.10;;
53781;SDS011;39692;53.114;7.060;2022-07-24T06:23:46;7.85;;;6.30;;
53781;SDS011;39692;53.114;7.060;2022-07-24T06:26:12;8.43;;;6.05;;
53781;SDS011;39692;53.114;7.060;2022-07-24T06:28:38;6.80;;;6.13;;
53781;SDS011;39692;53.114;7.060;2022-07-24T06:31:04;7.70;;;6.72;;
53781;SDS011;39692;53.114;7.060;2022-07-24T06:33:30;9.15;;;6.90;;
53781;SDS011;39692;53.114;7.060;2022-07-24T06:35:56;8.50;;;6.93;;
53781;SDS011;39692;53.114;7.060;2022-07-24T06:38:22;9.25;;;7.85;;
53781;SDS011;39692;53.114;7.060;2022-07-24T06:40:48;10.82;;;7.70;;
53781;SDS011;39692;53.114;7.060;2022-07-24T06:43:15;10.93;;;7.40;;
53781;SDS011;39692;53.114;7.060;2022-07-24T06:45:41;9.50;;;7.68;;
53781;SDS011;39692;53.114;7.060;2022-07-24T06:48:08;8.27;;;7.40;;
53781;SDS011;39692;53.114;7.060;2022-07-24T06:50:34;9.27;;;7.20;;
53781;SDS011;39692;53.114;7.060;2022-07-24T06:53:00;8.93;;;7.53;;
53781;SDS011;39692;53.114;7.060;2022-07-24T06:55:26;10.85;;;9.20;;
53781;SDS011;39692;53.114;7.060;2022-07-24T06:57:53;11.88;;;8.93;;
53781;SDS011;39692;53.114;7.060;2022-07-24T07:00:19;10.48;;;8.73;;
53781;SDS011;39692;53.114;7.060;2022-07-24T07:02:45;9.80;;;8.77;;
53781;SDS011;39692;53.114;7.060;2022-07-24T07:05:11;9.90;;;9.00;;
53781;SDS011;39692;53.114;7.060;2022-07-24T07:07:37;11.43;;;9.75;;
53781;SDS011;39692;53.114;7.060;2022-07-24T07:10:04;11.27;;;10.15;;
53781;SDS011;39692;53.114;7.060;2022-07-24T07:12:31;11.65;;;10.13;;
53781;SDS011;39692;53.114;7.060;2022-07-24T07:14:57;11.07;;;10.00;;
53781;SDS011;39692;53.114;7.060;2022-07-24T07:17:24;11.82;;;10.13;;
53781;SDS011;39692;53.114;7.060;2022-07-24T07:19:50;11.00;;;9.90;;
53781;SDS011;39692;53.114;7.060;2022-07-24T07:22:16;11.23;;;10.07;;
53781;SDS011;39692;53.114;7.060;2022-07-24T07:24:42;11.65;;;10.25;;
53781;SDS011;39692;53.114;7.060;2022-07-24T07:27:08;11.25;;;10.07;;
53781;SDS011;39692;53.114;7.060;2022-07-24T07:29:34;11.57;;;10.38;;
53781;SDS011;39692;53.114;7.060;2022-07-24T07:32:00;12.65;;;10.93;;
53781;SDS011;39692;53.114;7.060;2022-07-24T07:34:26;11.73;;;10.02;;
53781;SDS011;39692;53.114;7.060;2022-07-24T07:36:53;12.23;;;10.75;;
53781;SDS011;39692;53.114;7.060;2022-07-24T07:39:19;13.35;;;10.43;;
53781;SDS011;39692;53.114;7.060;2022-07-24T07:41:45;12.18;;;10.50;;
53781;SDS011;39692;53.114;7.060;2022-07-24T07:44:11;11.32;;;10.20;;
53781;SDS011;39692;53.114;7.060;2022-07-24T07:46:37;12.18;;;10.10;;
53781;SDS011;39692;53.114;7.060;2022-07-24T07:49:03;13.18;;;11.80;;
53781;SDS011;39692;53.114;7.060;2022-07-24T07:51:29;11.25;;;10.13;;
53781;SDS011;39692;53.114;7.060;2022-07-24T07:53:55;12.77;;;11.48;;
53781;SDS011;39692;53.114;7.060;2022-07-24T07:56:21;14.73;;;11.38;;
53781;SDS011;39692;53.114;7.060;2022-07-24T07:58:47;12.55;;;11.27;;
53781;SDS011;39692;53.114;7.060;2022-07-24T08:01:13;14.10;;;11.30;;
53781;SDS011;39692;53.114;7.060;2022-07-24T08:03:39;11.77;;;10.57;;
53781;SDS011;39692;53.114;7.060;2022-07-24T08:06:06;14.20;;;11.20;;
53781;SDS011;39692;53.114;7.060;2022-07-24T08:08:32;12.20;;;11.07;;
53781;SDS011;39692;53.114;7.060;2022-07-24T08:10:58;11.55;;;10.25;;
53781;SDS011;39692;53.114;7.060;2022-07-24T08:13:23;11.43;;;10.32;;
53781;SDS011;39692;53.114;7.060;2022-07-24T08:15:49;13.60;;;11.52;;
53781;SDS011;39692;53.114;7.060;2022-07-24T08:18:15;12.52;;;11.23;;
53781;SDS011;39692;53.114;7.060;2022-07-24T08:20:41;14.65;;;13.25;;
53781;SDS011;39692;53.114;7.060;2022-07-24T08:23:10;15.23;;;13.43;;
53781;SDS011;39692;53.114;7.060;2022-07-24T08:25:36;13.07;;;11.70;;
53781;SDS011;39692;53.114;7.060;2022-07-24T08:28:02;14.00;;;12.60;;
53781;SDS011;39692;53.114;7.060;2022-07-24T08:30:29;15.18;;;12.70;;
53781;SDS011;39692;53.114;7.060;2022-07-24T08:32:55;13.82;;;12.02;;
53781;SDS011;39692;53.114;7.060;2022-07-24T08:35:21;16.05;;;12.32;;
53781;SDS011;39692;53.114;7.060;2022-07-24T08:37:48;14.45;;;12.60;;
53781;SDS011;39692;53.114;7.060;2022-07-24T08:40:15;13.73;;;12.15;;
53781;SDS011;39692;53.114;7.060;2022-07-24T08:42:41;13.80;;;11.32;;
53781;SDS011;39692;53.114;7.060;2022-07-24T08:45:07;12.18;;;10.88;;
53781;SDS011;39692;53.114;7.060;2022-07-24T08:47:34;13.85;;;10.63;;
53781;SDS011;39692;53.114;7.060;2022-07-24T08:50:02;13.45;;;10.32;;
53781;SDS011;39692;53.114;7.060;2022-07-24T08:52:28;11.05;;;9.68;;
53781;SDS011;39692;53.114;7.060;2022-07-24T08:54:54;10.02;;;8.98;;
53781;SDS011;39692;53.114;7.060;2022-07-24T08:57:20;11.10;;;9.27;;
53781;SDS011;39692;53.114;7.060;2022-07-24T08:59:46;9.27;;;8.38;;
53781;SDS011;39692;53.114;7.060;2022-07-24T09:02:13;8.18;;;7.13;;
53781;SDS011;39692;53.114;7.060;2022-07-24T09:04:40;10.30;;;7.22;;
53781;SDS011;39692;53.114;7.060;2022-07-24T09:07:10;8.60;;;7.53;;
53781;SDS011;39692;53.114;7.060;2022-07-24T09:09:37;8.40;;;7.25;;
53781;SDS011;39692;53.114;7.060;2022-07-24T09:12:11;7.03;;;6.32;;
53781;SDS011;39692;53.114;7.060;2022-07-24T09:14:43;7.82;;;7.07;;
53781;SDS011;39692;53.114;7.060;2022-07-24T09:17:16;7.55;;;6.50;;
53781;SDS011;39692;53.114;7.060;2022-07-24T09:19:56;8.48;;;6.68;;
53781;SDS011;39692;53.114;7.060;2022-07-24T09:25:10;6.55;;;5.90;;
53781;SDS011;39692;53.114;7.060;2022-07-24T09:27:58;6.20;;;4.88;;
53781;SDS011;39692;53.114;7.060;2022-07-24T09:30:25;5.43;;;4.93;;
53781;SDS011;39692;53.114;7.060;2022-07-24T09:32:55;6.55;;;5.47;;
53781;SDS011;39692;53.114;7.060;2022-07-24T09:35:23;6.32;;;5.25;;
53781;SDS011;39692;53.114;7.060;2022-07-24T09:37:56;6.80;;;5.38;;
53781;SDS011;39692;53.114;7.060;2022-07-24T09:40:24;5.90;;;5.30;;
53781;SDS011;39692;53.114;7.060;2022-07-24T09:42:55;7.65;;;5.85;;
53781;SDS011;39692;53.114;7.060;2022-07-24T09:45:21;7.15;;;5.63;;
53781;SDS011;39692;53.114;7.060;2022-07-24T09:47:48;6.47;;;3.97;;
53781;SDS011;39692;53.114;7.060;2022-07-24T09:50:18;4.57;;;3.80;;
53781;SDS011;39692;53.114;7.060;2022-07-24T09:52:44;4.95;;;3.60;;
53781;SDS011;39692;53.114;7.060;2022-07-24T09:55:20;5.50;;;3.72;;
53781;SDS011;39692;53.114;7.060;2022-07-24T09:57:47;5.85;;;3.42;;
53781;SDS011;39692;53.114;7.060;2022-07-24T10:00:13;5.45;;;3.10;;
53781;SDS011;39692;53.114;7.060;2022-07-24T10:02:39;4.28;;;3.05;;
53781;SDS011;39692;53.114;7.060;2022-07-24T10:05:08;3.88;;;2.92;;
53781;SDS011;39692;53.114;7.060;2022-07-24T10:07:37;3.72;;;2.92;;
53781;SDS011;39692;53.114;7.060;2022-07-24T10:10:03;5.35;;;3.35;;
53781;SDS011;39692;53.114;7.060;2022-07-24T10:12:30;3.92;;;3.05;;
53781;SDS011;39692;53.114;7.060;2022-07-24T10:14:57;3.70;;;3.00;;
53781;SDS011;39692;53.114;7.060;2022-07-24T10:17:28;3.92;;;2.90;;
53781;SDS011;39692;53.114;7.060;2022-07-24T10:19:56;3.97;;;3.13;;
53781;SDS011;39692;53.114;7.060;2022-07-24T10:22:26;3.45;;;3.00;;
53781;SDS011;39692;53.114;7.060;2022-07-24T10:29:53;4.47;;;3.05;;
53781;SDS011;39692;53.114;7.060;2022-07-24T10:32:19;3.97;;;3.20;;
53781;SDS011;39692;53.114;7.060;2022-07-24T10:34:46;4.18;;;3.17;;
53781;SDS011;39692;53.114;7.060;2022-07-24T10:42:14;4.10;;;2.92;;
53781;SDS011;39692;53.114;7.060;2022-07-24T10:44:40;3.58;;;2.75;;
53781;SDS011;39692;53.114;7.060;2022-07-24T10:47:07;3.78;;;3.17;;
53781;SDS011;39692;53.114;7.060;2022-07-24T10:49:41;3.60;;;2.72;;
53781;SDS011;39692;53.114;7.060;2022-07-24T10:52:20;4.30;;;2.83;;
53781;SDS011;39692;53.114;7.060;2022-07-24T10:57:57;3.65;;;2.83;;
53781;SDS011;39692;53.114;7.060;2022-07-24T11:03:03;4.18;;;2.90;;
53781;SDS011;39692;53.114;7.060;2022-07-24T11:05:34;3.80;;;2.60;;
53781;SDS011;39692;53.114;7.060;2022-07-24T11:10:51;5.28;;;2.60;;
53781;SDS011;39692;53.114;7.060;2022-07-24T11:19:24;4.25;;;2.90;;
53781;SDS011;39692;53.114;7.060;2022-07-24T11:26:39;3.90;;;2.75;;
53781;SDS011;39692;53.114;7.060;2022-07-24T11:29:18;4.22;;;3.30;;
53781;SDS011;39692;53.114;7.060;2022-07-24T11:31:58;4.28;;;2.80;;
53781;SDS011;39692;53.114;7.060;2022-07-24T11:34:27;3.10;;;2.80;;
53781;SDS011;39692;53.114;7.060;2022-07-24T11:36:54;4.60;;;3.00;;
53781;SDS011;39692;53.114;7.060;2022-07-24T11:39:28;3.72;;;2.83;;
53781;SDS011;39692;53.114;7.060;2022-07-24T11:42:00;5.20;;;2.55;;
53781;SDS011;39692;53.114;7.060;2022-07-24T11:44:34;3.40;;;2.47;;
53781;SDS011;39692;53.114;7.060;2022-07-24T11:47:09;3.80;;;2.45;;
53781;SDS011;39692;53.114;7.060;2022-07-24T11:55:04;4.20;;;2.88;;
53781;SDS011;39692;53.114;7.060;2022-07-24T11:57:31;4.40;;;3.13;;
53781;SDS011;39692;53.114;7.060;2022-07-24T11:59:58;3.97;;;2.70;;
53781;SDS011;39692;53.114;7.060;2022-07-24T12:02:25;5.25;;;2.95;;
53781;SDS011;39692;53.114;7.060;2022-07-24T12:04:52;3.53;;;2.58;;
53781;SDS011;39692;53.114;7.060;2022-07-24T12:07:22;4.60;;;3.20;;
53781;SDS011;39692;53.114;7.060;2022-07-24T12:09:56;3.70;;;2.78;;
53781;SDS011;39692;53.114;7.060;2022-07-24T12:12:27;3.58;;;2.75;;
53781;SDS011;39692;53.114;7.060;2022-07-24T12:15:07;3.17;;;2.60;;
53781;SDS011;39692;53.114;7.060;2022-07-24T12:20:37;3.60;;;2.70;;
53781;SDS011;39692;53.114;7.060;2022-07-24T12:23:11;3.03;;;2.53;;
53781;SDS011;39692;53.114;7.060;2022-07-24T12:25:38;3.80;;;2.90;;
53781;SDS011;39692;53.114;7.060;2022-07-24T12:30:42;3.42;;;2.67;;
53781;SDS011;39692;53.114;7.060;2022-07-24T12:33:19;4.72;;;2.85;;
53781;SDS011;39692;53.114;7.060;2022-07-24T12:36:10;4.40;;;2.83;;
53781;SDS011;39692;53.114;7.060;2022-07-24T12:38:38;5.35;;;2.80;;
53781;SDS011;39692;53.114;7.060;2022-07-24T12:41:15;4.35;;;2.90;;
53781;SDS011;39692;53.114;7.060;2022-07-24T12:46:15;4.22;;;2.80;;
53781;SDS011;39692;53.114;7.060;2022-07-24T12:49:01;3.50;;;2.75;;
53781;SDS011;39692;53.114;7.060;2022-07-24T12:51:48;3.60;;;3.20;;
53781;SDS011;39692;53.114;7.060;2022-07-24T12:56:43;6.45;;;2.50;;
53781;SDS011;39692;53.114;7.060;2022-07-24T12:59:09;5.45;;;2.90;;
53781;SDS011;39692;53.114;7.060;2022-07-24T13:01:54;3.35;;;2.78;;
53781;SDS011;39692;53.114;7.060;2022-07-24T13:04:22;5.70;;;2.70;;
53781;SDS011;39692;53.114;7.060;2022-07-24T13:06:50;3.60;;;2.60;;
53781;SDS011;39692;53.114;7.060;2022-07-24T13:09:18;4.10;;;2.80;;
53781;SDS011;39692;53.114;7.060;2022-07-24T13:11:45;4.07;;;2.72;;
53781;SDS011;39692;53.114;7.060;2022-07-24T13:14:13;4.85;;;2.50;;
53781;SDS011;39692;53.114;7.060;2022-07-24T13:16:40;3.35;;;2.70;;
53781;SDS011;39692;53.114;7.060;2022-07-24T13:19:07;5.72;;;2.70;;
53781;SDS011;39692;53.114;7.060;2022-07-24T13:21:34;5.30;;;2.60;;
53781;SDS011;39692;53.114;7.060;2022-07-24T13:24:02;4.82;;;3.03;;
53781;SDS011;39692;53.114;7.060;2022-07-24T13:26:31;3.70;;;2.70;;
53781;SDS011;39692;53.114;7.060;2022-07-24T13:28:56;5.45;;;3.10;;
53781;SDS011;39692;53.114;7.060;2022-07-24T13:31:22;5.72;;;2.70;;
53781;SDS011;39692;53.114;7.060;2022-07-24T13:33:48;4.60;;;2.65;;
53781;SDS011;39692;53.114;7.060;2022-07-24T13:36:15;4.68;;;2.90;;
53781;SDS011;39692;53.114;7.060;2022-07-24T13:38:42;3.50;;;2.65;;
53781;SDS011;39692;53.114;7.060;2022-07-24T13:41:08;5.85;;;2.88;;
53781;SDS011;39692;53.114;7.060;2022-07-24T13:43:34;3.80;;;2.85;;
53781;SDS011;39692;53.114;7.060;2022-07-24T13:46:00;3.95;;;3.10;;
53781;SDS011;39692;53.114;7.060;2022-07-24T13:48:25;5.35;;;3.38;;
53781;SDS011;39692;53.114;7.060;2022-07-24T13:50:51;5.40;;;3.22;;
53781;SDS011;39692;53.114;7.060;2022-07-24T13:53:17;3.75;;;3.08;;
53781;SDS011;39692;53.114;7.060;2022-07-24T13:55:43;3.90;;;2.92;;
53781;SDS011;39692;53.114;7.060;2022-07-24T13:58:08;4.97;;;3.03;;
53781;SDS011;39692;53.114;7.060;2022-07-24T14:00:34;4.10;;;3.00;;
53781;SDS011;39692;53.114;7.060;2022-07-24T14:03:00;4.05;;;3.08;;
53781;SDS011;39692;53.114;7.060;2022-07-24T14:05:26;4.78;;;3.10;;
53781;SDS011;39692;53.114;7.060;2022-07-24T14:07:52;5.78;;;3.33;;
53781;SDS011;39692;53.114;7.060;2022-07-24T14:10:19;4.07;;;3.28;;
53781;SDS011;39692;53.114;7.060;2022-07-24T14:12:45;5.80;;;3.05;;
53781;SDS011;39692;53.114;7.060;2022-07-24T14:15:11;3.88;;;3.15;;
53781;SDS011;39692;53.114;7.060;2022-07-24T14:17:40;4.95;;;3.28;;
53781;SDS011;39692;53.114;7.060;2022-07-24T14:20:07;4.55;;;2.92;;
53781;SDS011;39692;53.114;7.060;2022-07-24T14:22:34;3.80;;;3.20;;
53781;SDS011;39692;53.114;7.060;2022-07-24T14:25:00;4.70;;;2.90;;
53781;SDS011;39692;53.114;7.060;2022-07-24T14:27:27;3.80;;;2.90;;
53781;SDS011;39692;53.114;7.060;2022-07-24T14:29:53;4.05;;;2.90;;
53781;SDS011;39692;53.114;7.060;2022-07-24T14:32:19;3.78;;;2.67;;
53781;SDS011;39692;53.114;7.060;2022-07-24T14:34:44;4.35;;;2.90;;
53781;SDS011;39692;53.114;7.060;2022-07-24T14:37:10;4.97;;;2.95;;
53781;SDS011;39692;53.114;7.060;2022-07-24T14:39:36;4.35;;;2.97;;
53781;SDS011;39692;53.114;7.060;2022-07-24T14:42:02;4.40;;;2.70;;
53781;SDS011;39692;53.114;7.060;2022-07-24T14:44:27;3.63;;;3.00;;
53781;SDS011;39692;53.114;7.060;2022-07-24T14:46:53;3.88;;;2.75;;
53781;SDS011;39692;53.114;7.060;2022-07-24T14:49:19;5.18;;;3.05;;
53781;SDS011;39692;53.114;7.060;2022-07-24T14:51:44;3.33;;;2.70;;
53781;SDS011;39692;53.114;7.060;2022-07-24T14:54:10;4.22;;;2.90;;
53781;SDS011;39692;53.114;7.060;2022-07-24T14:56:36;4.65;;;2.70;;
53781;SDS011;39692;53.114;7.060;2022-07-24T14:59:02;4.55;;;3.08;;
53781;SDS011;39692;53.114;7.060;2022-07-24T15:01:29;3.85;;;2.90;;
53781;SDS011;39692;53.114;7.060;2022-07-24T15:03:54;4.00;;;2.70;;
53781;SDS011;39692;53.114;7.060;2022-07-24T15:06:20;4.38;;;3.10;;
53781;SDS011;39692;53.114;7.060;2022-07-24T15:08:46;4.03;;;3.05;;
53781;SDS011;39692;53.114;7.060;2022-07-24T15:11:12;4.93;;;3.20;;
53781;SDS011;39692;53.114;7.060;2022-07-24T15:13:38;3.65;;;2.80;;
53781;SDS011;39692;53.114;7.060;2022-07-24T15:16:07;5.32;;;3.45;;
53781;SDS011;39692;53.114;7.060;2022-07-24T15:18:33;4.47;;;3.20;;
53781;SDS011;39692;53.114;7.060;2022-07-24T15:21:00;4.28;;;3.38;;
53781;SDS011;39692;53.114;7.060;2022-07-24T15:23:26;5.20;;;3.17;;
53781;SDS011;39692;53.114;7.060;2022-07-24T15:25:52;6.72;;;3.50;;
53781;SDS011;39692;53.114;7.060;2022-07-24T15:28:18;4.82;;;3.00;;
53781;SDS011;39692;53.114;7.060;2022-07-24T15:30:44;4.85;;;2.88;;